K4BHH Weather Reports


time (UTC)temp
F
wind
direction
speed
knots
gust
knots
rain 1hr
in
rain 24hr
in
rain mn
in
humidity
%
barometer
mb
20260504081555 45 187 0.0 0.0 0.00 0.00 0.00 86 1016.6
20260504080523 45 187 0.0 0.0 0.00 0.00 0.00 87 1016.6
20260504050331 47 175 0.0 0.0 0.00 0.00 0.00 83 1017.9
20260504045330 47 175 0.0 0.0 0.00 0.00 0.00 83 1017.9
20260504044329 48 175 0.0 0.0 0.00 0.00 0.00 80 1017.9
20260504043329 48 175 0.0 0.0 0.00 0.00 0.00 81 1017.9
20260504042328 49 175 0.0 0.0 0.00 0.00 0.00 82 1017.9
20260504041327 49 175 0.0 0.0 0.00 0.00 0.00 81 1017.9
20260504040255 50 175 0.0 0.9 0.00 0.00 0.00 79 1017.9
20260504035254 51 175 0.9 0.9 0.00 0.00 0.00 76 1017.6
20260504034150 51 192 0.0 0.9 0.00 0.00 0.00 76 1017.9
20260504033047 51 194 0.9 2.6 0.00 0.00 0.00 75 1017.9
20260504032015 52 184 1.7 2.6 0.00 0.00 0.00 77 1017.9
20260504031015 52 184 1.7 3.5 0.00 0.00 0.00 75 1018.3
20260504030014 52 197 2.6 3.5 0.00 0.00 0.00 75 1018.3
20260504024941 51 191 2.6 2.6 0.00 0.00 0.00 78 1018.3
20260504023909 52 205 0.9 2.6 0.00 0.00 0.00 76 1018.3
20260504022806 50 198 1.7 2.6 0.00 0.00 0.00 79 1017.9
20260504021733 51 151 0.0 0.0 0.00 0.00 0.00 77 1018.3
20260504020732 51 151 0.0 0.0 0.00 0.00 0.00 76 1017.9
20260504015731 52 151 0.0 0.0 0.00 0.00 0.00 74 1017.9
20260504014730 53 151 0.0 0.0 0.00 0.00 0.00 71 1017.6
20260504013729 54 151 0.0 0.0 0.00 0.00 0.00 68 1017.6
20260504012657 55 151 0.0 0.0 0.00 0.00 0.00 69 1017.6
20260504011656 56 151 0.0 0.0 0.00 0.00 0.00 64 1017.6
20260504010655 57 151 0.0 0.0 0.00 0.00 0.00 62 1017.3
20260504005654 58 151 0.0 0.0 0.00 0.00 0.00 58 1017.3
20260504004621 60 151 0.0 0.0 0.00 0.00 0.00 56 1017.3
20260504003620 61 151 0.0 1.7 0.00 0.00 0.00 52 1017.3
20260504002618 63 213 0.9 1.7 0.00 0.00 0.00 50 1017.3
20260504001617 65 257 0.0 3.5 0.00 0.00 0.00 47 1017.3
20260504000617 66 248 1.7 2.6 0.00 0.00 0.00 45 1017.3
20260503235616 66 252 0.9 4.3 0.00 0.00 0.00 44 1017.3
20260503234615 66 272 1.7 4.3 0.00 0.00 0.00 43 1017.6
20260503233614 67 263 1.7 4.3 0.00 0.00 0.00 42 1017.6
20260503232613 67 268 0.9 5.2 0.00 0.00 0.00 43 1017.6
20260503231541 67 285 1.7 5.2 0.00 0.00 0.00 42 1017.6
20260503230540 67 291 1.7 6.1 0.00 0.00 0.00 42 1017.9
20260503225539 67 290 2.6 6.1 0.00 0.00 0.00 41 1017.9
20260503224506 67 279 1.7 7.0 0.00 0.00 0.00 41 1017.9
20260503223505 68 216 3.5 7.0 0.00 0.00 0.00 39 1017.9
20260503222504 68 270 1.7 3.5 0.00 0.00 0.00 39 1017.9
20260503221432 68 271 1.7 7.0 0.00 0.00 0.00 41 1017.9
20260503220400 68 228 2.6 7.0 0.00 0.00 0.00 41 1017.9
20260503215359 68 226 2.6 6.1 0.00 0.00 0.00 42 1018.3
20260503214358 67 274 1.7 7.0 0.00 0.00 0.00 38 1018.3
20260503213326 68 291 2.6 6.1 0.00 0.00 0.00 40 1018.3
20260503212325 67 244 1.7 6.1 0.00 0.00 0.00 41 1018.3
20260503211324 67 289 3.5 6.1 0.00 0.00 0.00 39 1018.6
20260503210324 67 285 2.6 5.2 0.00 0.00 0.00 42 1018.6
20260503205252 67 274 0.9 7.0 0.00 0.00 0.00 38 1018.6
20260503204250 67 289 0.9 4.3 0.00 0.00 0.00 41 1018.6
20260503203250 67 278 1.7 6.1 0.00 0.00 0.00 42 1019.0
20260503202249 66 296 1.7 7.0 0.00 0.00 0.00 39 1019.3
20260503201248 67 283 2.6 7.0 0.00 0.00 0.00 39 1019.3
20260503200247 67 234 2.6 7.0 0.00 0.00 0.00 41 1019.6
20260503195247 66 244 2.6 7.8 0.00 0.00 0.00 40 1020.0
20260503194245 65 267 2.6 8.7 0.00 0.00 0.00 43 1020.0
20260503193245 65 343 1.7 8.7 0.00 0.00 0.00 42 1020.3
20260503192244 66 267 3.5 7.8 0.00 0.00 0.00 40 1020.3
20260503191243 65 282 2.6 10.4 0.00 0.00 0.00 40 1020.7
20260503190242 65 271 4.3 10.4 0.00 0.00 0.00 42 1020.7
20260503185241 65 207 1.7 7.0 0.00 0.00 0.00 41 1021.0
20260503184138 65 260 1.7 7.0 0.00 0.00 0.00 44 1021.0
20260503183137 64 216 2.6 6.1 0.00 0.00 0.00 45 1021.0
20260503182136 64 257 1.7 7.0 0.00 0.00 0.00 42 1021.3
20260503181135 63 290 3.5 7.0 0.00 0.00 0.00 41 1021.3
20260503180133 63 312 0.9 7.0 0.00 0.00 0.00 40 1021.3
20260503175132 63 299 0.9 5.2 0.00 0.00 0.00 47 1021.3
20260503174132 62 25 0.9 5.2 0.00 0.00 0.00 47 1021.7
20260503173131 62 270 1.7 6.1 0.00 0.00 0.00 47 1021.7
20260503172129 63 232 1.7 6.1 0.00 0.00 0.00 47 1022.0
20260503171129 62 350 1.7 6.1 0.00 0.00 0.00 49 1022.0
20260503170128 62 278 2.6 6.1 0.00 0.00 0.00 46 1022.4
20260503150912 57 281 1.7 4.3 0.00 0.00 0.00 54 1022.7
20260503130831 50 16 2.6 6.1 0.00 0.00 0.00 83 1022.7